^^
Station Historical Data
Daily Summary for January 17, 2018 Units:  English    Metric   Both
« Previous Day
Next Day »
Daily Weekly Monthly Yearly Custom
  High: Low: Average:
Temperature: TemperatureC °F -7.3 °F -6.4 °F
Dew Point: DewpointC °F -10.2 °F -8.2 °F
Humidity: Humidity% 72% 87%
Wind Speed: WindSpeedKMHmph 0.0mph 4.6mph
Wind Gust: WindSpeedGustKMHmph - -
Wind- - ESE
Pressure: PressurehPa in 996.5 in -
Precipitation: 1.5 in    
Historical Graphs
 
 
Tabular Data for January 17, 2018
Time Temperature Dew Point Pressure Wind Wind Speed Wind Gust Humidity Rainfall Rate (Hourly) solar Conditions
TemperatureC °F DewpointC °F PressurehPa in Calm     Humidity% HourlyPrecipMM in SoftwareType W/m2 Conditions
00:07 -5.9 °F -9.9 °F 1002.3 in ENE 7.9 mph 19.3 mph 73% 0.0 in WeatherDisplay:10.37 W/m2 FEW
00:14 -5.9 °F -10.0 °F 1002.3 in East 13.0 mph 13.0 mph 73% 0.0 in WeatherDisplay:10.37 W/m2 FEW
00:19 -6.0 °F -10.2 °F 1002.3 in ESE 9.3 mph 18.5 mph 72% 0.0 in WeatherDisplay:10.37 W/m2 FEW
00:24 -6.0 °F -10.2 °F 1001.9 in East 5.0 mph 5.6 mph 72% 0.0 in WeatherDisplay:10.37 W/m2 FEW
00:29 -6.0 °F -10.2 °F 1001.9 in ESE 6.9 mph 25.9 mph 72% 0.0 in WeatherDisplay:10.37 W/m2 FEW
00:37 -6.1 °F -9.9 °F 1001.9 in East 10.3 mph 13.0 mph 74% 0.0 in WeatherDisplay:10.37 W/m2 FEW
00:46 -6.1 °F -9.6 °F 1001.9 in SSE 12.2 mph 13.0 mph 76% 0.0 in WeatherDisplay:10.37 W/m2 FEW
00:56 -6.1 °F -9.4 °F 1001.9 in SE 7.6 mph 14.8 mph 77% 0.0 in WeatherDisplay:10.37 W/m2 FEW
01:02 -6.1 °F -9.5 °F 1001.6 in South 10.9 mph 18.5 mph 77% 0.0 in WeatherDisplay:10.37 W/m2 FEW
01:16 -6.2 °F -9.6 °F 1001.6 in ESE 5.6 mph 16.7 mph 77% 0.0 in WeatherDisplay:10.37 W/m2 FEW
01:21 -6.3 °F -9.7 °F 1001.6 in ESE 5.8 mph 18.5 mph 77% 0.0 in WeatherDisplay:10.37 W/m2 FEW
01:31 -6.4 °F -9.7 °F 1001.2 in ESE 9.5 mph 22.2 mph 78% 0.0 in WeatherDisplay:10.37 W/m2 FEW
01:36 -6.5 °F -9.7 °F 1001.2 in ENE 13.5 mph 20.4 mph 78% 0.0 in WeatherDisplay:10.37 W/m2 FEW
01:46 -6.6 °F -9.6 °F 1001.2 in NE 10.1 mph 31.5 mph 79% 0.0 in WeatherDisplay:10.37 W/m2 FEW
01:51 -6.6 °F -9.5 °F 1001.2 in East 0.6 mph 11.1 mph 80% 0.0 in WeatherDisplay:10.37 W/m2 FEW
02:03 -6.7 °F -9.4 °F 1001.2 in SE 5.0 mph 11.1 mph 81% 0.0 in WeatherDisplay:10.37 W/m2 FEW
02:08 -6.7 °F -9.3 °F 1001.2 in South 10.1 mph 20.4 mph 82% 0.0 in WeatherDisplay:10.37 W/m2 FEW
02:19 -6.6 °F -9.2 °F 1001.2 in SE 17.4 mph 24.1 mph 82% 0.0 in WeatherDisplay:10.37 W/m2 FEW
02:24 -6.5 °F -9.1 °F 1001.2 in ESE 7.7 mph 18.5 mph 82% 0.0 in WeatherDisplay:10.37 W/m2 FEW
02:30 -6.5 °F -8.9 °F 1000.9 in SE 6.4 mph 13.0 mph 83% 0.0 in WeatherDisplay:10.37 W/m2 FEW
02:40 -6.4 °F -8.8 °F 1001.2 in ESE 4.3 mph 5.6 mph 83% 0.0 in WeatherDisplay:10.37 W/m2 FEW
02:45 -6.4 °F -8.8 °F 1000.9 in SE 5.0 mph 11.1 mph 83% 0.0 in WeatherDisplay:10.37 W/m2 FEW
02:50 -6.4 °F -8.8 °F 1000.9 in SSE 10.0 mph 22.2 mph 83% 0.0 in WeatherDisplay:10.37 W/m2 FEW
02:55 -6.4 °F -8.8 °F 1000.9 in ENE 7.7 mph 14.8 mph 83% 0.0 in WeatherDisplay:10.37 W/m2 FEW
03:04 -6.5 °F -9.1 °F 1000.6 in SSE 14.3 mph 22.5 mph 82% 0.0 in WeatherDisplay:10.37 W/m2 FEW
03:15 -6.6 °F -9.1 °F 1000.6 in SE 4.5 mph 16.1 mph 82% 0.0 in WeatherDisplay:10.37 W/m2 FEW
03:20 -6.7 °F -9.4 °F 1000.6 in NE 8.7 mph 22.2 mph 81% 0.0 in WeatherDisplay:10.37 W/m2 FEW
03:26 -6.7 °F -9.4 °F 1000.6 in ESE 14.6 mph 31.5 mph 81% 0.0 in WeatherDisplay:10.37 W/m2 FEW
03:35 -6.8 °F -9.5 °F 1000.6 in SE 9.8 mph 20.4 mph 81% 0.0 in WeatherDisplay:10.37 W/m2 FEW
03:47 -6.8 °F -9.6 °F 1000.6 in ESE 12.1 mph 24.1 mph 81% 0.0 in WeatherDisplay:10.37 W/m2 FEW
03:59 -6.9 °F -9.6 °F 1000.2 in ESE 14.5 mph 22.2 mph 81% 0.0 in WeatherDisplay:10.37 W/m2 FEW
04:09 -6.9 °F -9.6 °F 1000.2 in ESE 11.3 mph 24.1 mph 81% 0.0 in WeatherDisplay:10.37 W/m2 FEW
04:14 -6.9 °F -9.7 °F 1000.2 in SSE 16.9 mph 38.9 mph 81% 0.0 in WeatherDisplay:10.37 W/m2 FEW
04:19 -6.9 °F -9.6 °F 1000.6 in East 10.1 mph 24.1 mph 81% 0.0 in WeatherDisplay:10.37 W/m2 FEW
04:31 -6.9 °F -9.7 °F 1000.6 in East 7.2 mph 18.5 mph 81% 0.0 in WeatherDisplay:10.37 W/m2 FEW
04:38 -6.9 °F -9.8 °F 1000.6 in East 12.2 mph 18.5 mph 80% 0.0 in WeatherDisplay:10.37 W/m2 FEW
04:49 -6.9 °F -9.8 °F 1000.2 in SE 11.9 mph 20.4 mph 80% 0.0 in WeatherDisplay:10.37 W/m2 FEW
04:59 -6.9 °F -9.8 °F 1000.2 in SSE 12.4 mph 22.2 mph 80% 0.0 in WeatherDisplay:10.37 W/m2 FEW
05:06 -6.9 °F -9.8 °F 1000.2 in ESE 6.1 mph 25.9 mph 80% 0.0 in WeatherDisplay:10.37 W/m2 FEW
05:11 -7.0 °F -9.9 °F 1000.2 in ENE 10.9 mph 18.5 mph 80% 0.0 in WeatherDisplay:10.37 W/m2 FEW
05:19 -7.0 °F -9.9 °F 1000.2 in SE 6.0 mph 13.0 mph 80% 0.0 in WeatherDisplay:10.37 W/m2 FEW
05:27 -7.0 °F -9.7 °F 999.9 in East 3.4 mph 6.4 mph 81% 0.0 in WeatherDisplay:10.37 W/m2 FEW
05:33 -6.9 °F -9.7 °F 999.9 in SSW 13.4 mph 20.4 mph 81% 0.0 in WeatherDisplay:10.37 W/m2 FEW
05:38 -6.9 °F -9.3 °F 999.9 in ESE 10.3 mph 16.7 mph 83% 0.0 in WeatherDisplay:10.37 W/m2 FEW
05:53 -6.9 °F -9.2 °F 999.9 in SSW 4.5 mph 11.1 mph 84% 0.0 in WeatherDisplay:10.37 W/m2 FEW
06:01 -6.9 °F -9.2 °F 999.9 in ENE 7.4 mph 18.5 mph 84% 0.0 in WeatherDisplay:10.37 W/m2 FEW
06:06 -7.0 °F -9.4 °F 999.9 in ESE 9.5 mph 22.2 mph 83% 0.0 in WeatherDisplay:10.37 W/m2 FEW
06:14 -7.0 °F -9.2 °F 999.9 in SE 8.7 mph 18.5 mph 84% 0.0 in WeatherDisplay:10.37 W/m2 FEW
06:20 -7.0 °F -9.2 °F 999.5 in SE 6.6 mph 13.0 mph 84% 0.0 in WeatherDisplay:10.37 W/m2 FEW
06:36 -7.1 °F -9.3 °F 999.5 in NE 7.2 mph 13.0 mph 84% 0.0 in WeatherDisplay:10.37 W/m2 FEW
06:44 -7.1 °F -9.3 °F 999.5 in SE 2.9 mph 14.8 mph 84% 0.0 in WeatherDisplay:10.37 W/m2 FEW
06:50 -7.1 °F -9.2 °F 999.2 in East 9.5 mph 14.8 mph 85% 0.0 in WeatherDisplay:10.37 W/m2 FEW
06:55 -7.1 °F -9.2 °F 999.2 in SSE 7.9 mph 22.2 mph 85% 0.0 in WeatherDisplay:10.37 W/m2 FEW
07:04 -7.1 °F -9.2 °F 999.2 in East 8.7 mph 14.8 mph 85% 0.0 in WeatherDisplay:10.37 W/m2 FEW
07:09 -7.1 °F -9.2 °F 999.2 in East 1.9 mph 5.6 mph 85% 0.0 in WeatherDisplay:10.37 W/m2 FEW
07:14 -7.1 °F -9.2 °F 999.2 in SSE 10.6 mph 22.5 mph 85% 0.0 in WeatherDisplay:10.37 W/m2 FEW
07:19 -7.1 °F -9.2 °F 999.2 in ESE 7.4 mph 20.4 mph 85% 0.0 in WeatherDisplay:10.37 W/m2 FEW
07:29 -7.0 °F -9.2 °F 999.2 in SSE 6.4 mph 22.2 mph 84% 0.0 in WeatherDisplay:10.37 W/m2 FEW
07:36 -6.9 °F -9.2 °F 998.9 in ESE 9.0 mph 18.5 mph 84% 0.0 in WeatherDisplay:10.37 W/m2 FEW
07:42 -6.9 °F -9.2 °F 998.9 in ESE 11.7 mph 14.8 mph 84% 0.0 in WeatherDisplay:10.37 W/m2 FEW
07:47 -6.9 °F -9.3 °F 998.9 in ENE 7.7 mph 29.6 mph 83% 0.0 in WeatherDisplay:10.37 W/m2 FEW
07:58 -6.8 °F -9.2 °F 998.9 in SSE 14.0 mph 20.4 mph 83% 0.0 in WeatherDisplay:10.37 W/m2 FEW
08:03 -6.8 °F -9.3 °F 998.9 in SSE 8.8 mph 20.4 mph 82% 0.0 in WeatherDisplay:10.37 W/m2 FEW
08:10 -6.8 °F -9.3 °F 998.9 in SE 9.3 mph 22.5 mph 82% 0.0 in WeatherDisplay:10.37 W/m2 FEW
08:15 -6.7 °F -9.3 °F 998.9 in SE 9.3 mph 18.5 mph 82% 0.0 in WeatherDisplay:10.37 W/m2 FEW
08:25 -6.7 °F -9.3 °F 998.9 in SE 1.4 mph 5.6 mph 82% 0.0 in WeatherDisplay:10.37 W/m2 FEW
08:31 -6.7 °F -9.2 °F 998.9 in SSE 5.5 mph 14.8 mph 82% 0.0 in WeatherDisplay:10.37 W/m2 FEW
08:36 -6.7 °F -9.2 °F 998.9 in ESE 6.4 mph 16.7 mph 82% 0.0 in WeatherDisplay:10.37 W/m2 FEW
08:49 -6.7 °F -9.2 °F 998.9 in SE 8.5 mph 24.1 mph 82% 0.0 in WeatherDisplay:10.37 W/m2 FEW
08:54 -6.7 °F -9.2 °F 998.9 in South 15.8 mph 24.1 mph 82% 0.0 in WeatherDisplay:10.37 W/m2 FEW
09:01 -6.7 °F -9.2 °F 998.9 in SSW 7.2 mph 14.8 mph 82% 0.0 in WeatherDisplay:10.37 W/m2 FEW
09:06 -6.7 °F -9.3 °F 998.9 in ESE 3.2 mph 8.0 mph 82% 0.0 in WeatherDisplay:10.37 W/m2 FEW
09:16 -6.7 °F -9.4 °F 998.9 in SE 9.5 mph 20.4 mph 81% 0.0 in WeatherDisplay:10.37 W/m2 FEW
09:29 -6.8 °F -9.3 °F 998.9 in East 6.8 mph 16.7 mph 82% 0.0 in WeatherDisplay:10.37 W/m2 FEW
09:40 -6.8 °F -9.4 °F 998.9 in East 5.3 mph 9.7 mph 82% 0.0 in WeatherDisplay:10.37 W/m2 FEW
09:45 -6.9 °F -9.4 °F 998.9 in SE 9.5 mph 18.5 mph 82% 0.0 in WeatherDisplay:10.37 W/m2 FEW
09:50 -6.9 °F -9.4 °F 998.9 in SE 1.4 mph 14.8 mph 82% 0.0 in WeatherDisplay:10.37 W/m2 FEW
09:55 -6.9 °F -9.3 °F 998.9 in East 12.2 mph 22.2 mph 83% 0.0 in WeatherDisplay:10.37 W/m2 FEW
10:13 -7.0 °F -9.2 °F 998.9 in South 9.5 mph 14.8 mph 84% 0.0 in WeatherDisplay:10.37 W/m2 FEW
10:18 -7.0 °F -9.2 °F 998.9 in East 6.6 mph 16.7 mph 84% 0.0 in WeatherDisplay:10.37 W/m2 FEW
10:23 -7.0 °F -9.1 °F 998.9 in SE 5.5 mph 13.0 mph 85% 0.0 in WeatherDisplay:10.37 W/m2 FEW
10:34 -7.1 °F -9.0 °F 998.9 in South 5.6 mph 16.1 mph 86% 0.0 in WeatherDisplay:10.37 W/m2 FEW
10:39 -7.1 °F -9.0 °F 998.5 in ESE 3.2 mph 7.4 mph 86% 0.0 in WeatherDisplay:10.37 W/m2 FEW
10:49 -7.1 °F -9.0 °F 998.5 in SSW 9.2 mph 24.1 mph 86% 0.0 in WeatherDisplay:10.37 W/m2 FEW
10:59 -7.1 °F -8.9 °F 998.5 in ESE 4.7 mph 11.1 mph 87% 0.0 in WeatherDisplay:10.37 W/m2 FEW
11:04 -7.2 °F -8.8 °F 998.5 in SE 3.9 mph 12.9 mph 88% 0.0 in WeatherDisplay:10.37 W/m2 FEW
11:09 -7.2 °F -8.8 °F 998.5 in ESE 4.3 mph 9.3 mph 88% 0.0 in WeatherDisplay:10.37 W/m2 FEW
11:14 -7.2 °F -8.8 °F 998.5 in SE 5.1 mph 13.0 mph 88% 0.0 in WeatherDisplay:10.37 W/m2 FEW
11:19 -7.1 °F -8.6 °F 998.5 in ESE 5.5 mph 13.0 mph 89% 0.0 in WeatherDisplay:10.37 W/m2 FEW
11:24 -7.1 °F -8.6 °F 998.5 in South 1.1 mph 3.2 mph 89% 0.0 in WeatherDisplay:10.37 W/m2 FEW
11:44 -7.1 °F -8.6 °F 998.2 in ESE 7.4 mph 16.7 mph 89% 0.0 in WeatherDisplay:10.37 W/m2 FEW
11:49 -7.2 °F -8.7 °F 998.2 in SE 6.0 mph 11.1 mph 89% 0.0 in WeatherDisplay:10.37 W/m2 FEW
11:54 -7.2 °F -8.7 °F 998.2 in SE 10.6 mph 14.8 mph 89% 0.0 in WeatherDisplay:10.37 W/m2 FEW
11:59 -7.2 °F -8.7 °F 998.2 in SE 10.9 mph 22.2 mph 89% 0.0 in WeatherDisplay:10.37 W/m2 FEW
12:04 -7.2 °F -8.6 °F 997.9 in SE 6.0 mph 13.0 mph 90% 0.0 in WeatherDisplay:10.37 W/m2 FEW
12:13 -7.2 °F -8.7 °F 997.9 in South 5.3 mph 9.3 mph 89% 0.0 in WeatherDisplay:10.37 W/m2 FEW
12:26 -7.2 °F -8.7 °F 997.9 in ESE 9.5 mph 18.5 mph 89% 0.0 in WeatherDisplay:10.37 W/m2 FEW
12:31 -7.1 °F -8.6 °F 997.9 in SE 0.2 mph 11.1 mph 89% 0.0 in WeatherDisplay:10.37 W/m2 FEW
12:39 -7.1 °F -8.4 °F 997.9 in ESE 2.3 mph 5.6 mph 90% 0.0 in WeatherDisplay:10.37 W/m2 FEW
12:47 -7.1 °F -8.6 °F 997.9 in SE 5.1 mph 13.0 mph 89% 0.0 in WeatherDisplay:10.37 W/m2 FEW
12:55 -7.2 °F -8.5 °F 997.9 in East 1.6 mph 5.6 mph 90% 0.0 in WeatherDisplay:10.37 W/m2 FEW
13:00 -7.1 °F -8.6 °F 997.5 in ENE 3.5 mph 9.3 mph 89% 0.0 in WeatherDisplay:10.37 W/m2 FEW
13:05 -7.1 °F -8.6 °F 997.5 in ENE 6.1 mph 6.1 mph 89% 0.0 in WeatherDisplay:10.37 W/m2 FEW
13:12 -7.1 °F -8.6 °F 997.5 in East 1.1 mph 7.4 mph 89% 0.3 in WeatherDisplay:10.37 W/m2 RA
13:17 -7.1 °F -8.7 °F 997.5 in SSW 9.0 mph 18.5 mph 88% 0.3 in WeatherDisplay:10.37 W/m2 FEW
13:22 -7.1 °F -8.7 °F 997.5 in Calm   1.9 mph 88% 0.3 in WeatherDisplay:10.37 W/m2 FEW
13:31 -7.1 °F -8.7 °F 997.5 in ENE 1.6 mph 5.6 mph 88% 0.3 in WeatherDisplay:10.37 W/m2 FEW
13:36 -7.1 °F -8.8 °F 997.5 in ESE 4.8 mph 9.7 mph 88% 0.3 in WeatherDisplay:10.37 W/m2 FEW
13:57 -7.3 °F -8.9 °F 997.5 in ENE 2.6 mph 5.6 mph 88% 0.3 in WeatherDisplay:10.37 W/m2 FEW
14:02 -7.3 °F -8.9 °F 997.2 in ESE 3.7 mph 5.6 mph 88% 0.3 in WeatherDisplay:10.37 W/m2 FEW
14:07 -7.3 °F -8.9 °F 997.5 in ESE 4.0 mph 11.1 mph 88% 0.0 in WeatherDisplay:10.37 W/m2 FEW
14:12 -7.3 °F -8.9 °F 997.5 in SSE 5.6 mph 11.1 mph 88% 0.0 in WeatherDisplay:10.37 W/m2 FEW
14:17 -7.2 °F -8.9 °F 997.2 in ESE 2.1 mph 9.3 mph 88% 0.0 in WeatherDisplay:10.37 W/m2 FEW
14:26 -7.3 °F -8.8 °F 997.5 in ESE 0.6 mph 3.7 mph 89% 0.0 in WeatherDisplay:10.37 W/m2 FEW
14:37 -7.2 °F -8.7 °F 997.2 in SE 2.7 mph 6.4 mph 89% 0.0 in WeatherDisplay:10.37 W/m2 FEW
14:45 -7.2 °F -8.6 °F 997.2 in SE 2.6 mph 5.6 mph 90% 0.0 in WeatherDisplay:10.37 W/m2 FEW
14:55 -7.1 °F -8.5 °F 997.2 in ESE 5.1 mph 11.1 mph 90% 0.0 in WeatherDisplay:10.37 W/m2 FEW
15:06 -7.0 °F -8.4 °F 997.2 in SE 5.1 mph 11.1 mph 90% 0.0 in WeatherDisplay:10.37 W/m2 FEW
15:11 -6.9 °F -8.3 °F 997.2 in ESE 3.5 mph 8.0 mph 90% 0.0 in WeatherDisplay:10.37 W/m2 FEW
15:16 -6.9 °F -8.2 °F 997.2 in SSE 7.1 mph 7.4 mph 91% 0.0 in WeatherDisplay:10.37 W/m2 FEW
15:25 -6.9 °F -8.3 °F 997.2 in ENE 2.4 mph 5.6 mph 90% 0.0 in WeatherDisplay:10.37 W/m2 FEW
15:32 -6.9 °F -8.3 °F 997.2 in SE 3.4 mph 13.0 mph 90% 0.0 in WeatherDisplay:10.37 W/m2 FEW
15:45 -6.8 °F -8.1 °F 997.2 in SSE 3.1 mph 9.7 mph 91% 0.0 in WeatherDisplay:10.37 W/m2 FEW
15:50 -6.8 °F -8.2 °F 997.2 in Calm   5.6 mph 90% 0.0 in WeatherDisplay:10.37 W/m2 FEW
15:58 -6.8 °F -8.2 °F 997.2 in East 1.0 mph 6.4 mph 90% 0.0 in WeatherDisplay:10.37 W/m2 FEW
16:09 -6.8 °F -8.0 °F 996.8 in SE 1.3 mph 5.6 mph 91% 0.0 in WeatherDisplay:10.37 W/m2 FEW
16:16 -6.8 °F -8.0 °F 996.8 in ENE 5.1 mph 7.4 mph 91% 0.0 in WeatherDisplay:10.37 W/m2 FEW
16:23 -6.8 °F -8.0 °F 996.8 in ENE 1.3 mph 3.7 mph 91% 0.0 in WeatherDisplay:10.37 W/m2 FEW
16:34 -6.7 °F -7.9 °F 996.8 in ESE 1.6 mph 5.6 mph 91% 0.3 in WeatherDisplay:10.37 W/m2 RA
16:45 -6.7 °F -7.9 °F 996.8 in ENE 2.6 mph 5.6 mph 91% 0.3 in WeatherDisplay:10.37 W/m2 FEW
16:51 -6.6 °F -7.7 °F 996.8 in Calm   3.7 mph 92% 0.3 in WeatherDisplay:10.37 W/m2 FEW
17:00 -6.6 °F -7.7 °F 996.8 in ESE 1.1 mph 5.6 mph 92% 0.3 in WeatherDisplay:10.37 W/m2 FEW
17:10 -6.5 °F -7.6 °F 996.8 in ENE 3.5 mph 5.6 mph 92% 0.5 in WeatherDisplay:10.37 W/m2 RA
17:17 -6.4 °F -7.6 °F 996.8 in Calm     92% 0.5 in WeatherDisplay:10.37 W/m2 FEW
17:22 -6.4 °F -7.5 °F 996.8 in ENE 0.3 mph 4.8 mph 92% 0.5 in WeatherDisplay:10.37 W/m2 FEW
17:28 -6.3 °F -7.4 °F 996.8 in SE 0.5 mph 5.6 mph 92% 0.5 in WeatherDisplay:10.37 W/m2 RA
17:33 -6.3 °F -7.4 °F 996.8 in Calm     92% 0.5 in WeatherDisplay:10.37 W/m2 RA
17:39 -6.3 °F -7.4 °F 996.8 in Calm     92% 0.5 in WeatherDisplay:10.37 W/m2 FEW
17:45 -6.3 °F -7.4 °F 996.8 in Calm     92% 0.5 in WeatherDisplay:10.37 W/m2 FEW
17:58 -6.3 °F -7.4 °F 996.8 in SE 1.1 mph 9.3 mph 92% 0.5 in WeatherDisplay:10.37 W/m2 RA
18:04 -6.2 °F -7.3 °F 996.8 in ESE 3.1 mph 11.1 mph 92% 0.5 in WeatherDisplay:10.37 W/m2 FEW
18:09 -6.3 °F -7.4 °F 996.8 in ESE 2.6 mph 6.4 mph 92% 0.5 in WeatherDisplay:10.37 W/m2 FEW
18:14 -6.2 °F -7.3 °F 996.5 in South 0.2 mph 3.7 mph 92% 0.5 in WeatherDisplay:10.37 W/m2 FEW
18:19 -6.3 °F -7.4 °F 996.5 in SSE 0.8 mph 5.6 mph 92% 0.5 in WeatherDisplay:10.37 W/m2 FEW
18:24 -6.2 °F -7.3 °F 996.8 in SE 0.6 mph 7.4 mph 92% 0.5 in WeatherDisplay:10.37 W/m2 FEW
18:41 -6.2 °F -7.3 °F 996.8 in ENE 2.4 mph 5.6 mph 92% 0.3 in WeatherDisplay:10.37 W/m2 FEW
18:49 -6.2 °F -7.3 °F 996.8 in ESE 0.5 mph 5.6 mph 92% 0.3 in WeatherDisplay:10.37 W/m2 FEW
18:59 -6.2 °F -7.3 °F 996.8 in SE 3.2 mph 9.3 mph 92% 0.0 in WeatherDisplay:10.37 W/m2 FEW
19:04 -6.2 °F -7.3 °F 996.8 in East 1.4 mph 5.6 mph 92% 0.0 in WeatherDisplay:10.37 W/m2 FEW
19:19 -6.1 °F -7.2 °F 996.8 in Calm     92% 0.3 in WeatherDisplay:10.37 W/m2 FEW
19:26 -6.1 °F -7.2 °F 996.8 in SE 2.9 mph 7.4 mph 92% 0.3 in WeatherDisplay:10.37 W/m2 FEW
19:34 -6.1 °F -7.2 °F 996.8 in Calm     92% 0.3 in WeatherDisplay:10.37 W/m2 FEW
19:39 -6.1 °F -7.2 °F 996.8 in SE 0.2 mph 1.9 mph 92% 0.3 in WeatherDisplay:10.37 W/m2 FEW
19:52 -6.0 °F -7.1 °F 996.8 in Calm     92% 0.3 in WeatherDisplay:10.37 W/m2 FEW
19:58 -6.0 °F -7.1 °F 996.8 in SE 1.1 mph 5.6 mph 92% 0.3 in WeatherDisplay:10.37 W/m2 FEW
20:08 -5.9 °F -7.1 °F 996.8 in Calm     92% 0.0 in WeatherDisplay:10.37 W/m2 FEW
20:13 -5.9 °F -7.0 °F 996.8 in ESE 1.3 mph 4.8 mph 92% 0.0 in WeatherDisplay:10.37 W/m2 FEW
20:21 -5.9 °F -7.0 °F 996.8 in Calm     92% 0.3 in WeatherDisplay:10.37 W/m2 RA
20:28 -5.8 °F -6.9 °F 996.8 in Calm     92% 0.3 in WeatherDisplay:10.37 W/m2 FEW
20:38 -5.7 °F -6.8 °F 996.5 in Calm     92% 0.3 in WeatherDisplay:10.37 W/m2 FEW
20:46 -5.7 °F -6.8 °F 996.5 in Calm     92% 0.3 in WeatherDisplay:10.37 W/m2 FEW
20:51 -5.7 °F -6.8 °F 996.5 in Calm     92% 0.3 in WeatherDisplay:10.37 W/m2 FEW
20:57 -5.7 °F -6.8 °F 996.5 in East 0.2 mph 3.7 mph 92% 0.3 in WeatherDisplay:10.37 W/m2 FEW
21:03 -5.6 °F -6.7 °F 996.5 in Calm     92% 0.3 in WeatherDisplay:10.37 W/m2 FEW
21:08 -5.6 °F -6.7 °F 996.5 in Calm     92% 0.3 in WeatherDisplay:10.37 W/m2 FEW
21:17 -5.6 °F -6.7 °F 996.5 in Calm     92% 0.3 in WeatherDisplay:10.37 W/m2 FEW
21:26 -5.6 °F -6.7 °F 996.8 in Calm     92% 0.0 in WeatherDisplay:10.37 W/m2 FEW
21:34 -5.6 °F -6.7 °F 996.8 in Calm     92% 0.0 in WeatherDisplay:10.37 W/m2 FEW
21:40 -5.5 °F -6.6 °F 996.8 in Calm     92% 0.0 in WeatherDisplay:10.37 W/m2 FEW
21:45 -5.5 °F -6.6 °F 996.8 in ENE 1.0 mph 3.7 mph 92% 0.0 in WeatherDisplay:10.37 W/m2 FEW
21:50 -5.5 °F -6.6 °F 996.8 in Calm     92% 0.0 in WeatherDisplay:10.37 W/m2 FEW
21:55 -5.5 °F -6.6 °F 996.8 in Calm     92% 0.0 in WeatherDisplay:10.37 W/m2 FEW
22:00 -5.4 °F -6.6 °F 996.8 in Calm     92% 0.0 in WeatherDisplay:10.37 W/m2 FEW
22:06 -5.4 °F -6.6 °F 996.8 in Calm     92% 0.0 in WeatherDisplay:10.37 W/m2 FEW
22:11 -5.4 °F -6.6 °F 996.8 in Calm     92% 0.0 in WeatherDisplay:10.37 W/m2 FEW
22:16 -5.4 °F -6.5 °F 997.2 in Calm     92% 0.0 in WeatherDisplay:10.37 W/m2 FEW
22:21 -5.4 °F -6.5 °F 997.2 in Calm     92% 0.0 in WeatherDisplay:10.37 W/m2 FEW
22:26 -5.4 °F -6.5 °F 996.8 in Calm     92% 0.0 in WeatherDisplay:10.37 W/m2 FEW
22:33 -5.3 °F -6.4 °F 996.8 in Calm     92% 0.0 in WeatherDisplay:10.37 W/m2 FEW
22:37 -5.3 °F -6.4 °F 996.8 in Calm     92% 0.3 in WeatherDisplay:10.37 W/m2 RA
22:40 -5.3 °F -6.4 °F 996.8 in Calm     92% 0.3 in WeatherDisplay:10.37 W/m2 RA
22:45 -5.3 °F -6.4 °F 996.8 in Calm     92% 0.3 in WeatherDisplay:10.37 W/m2 RA
22:50 -5.3 °F -6.4 °F 996.8 in Calm     92% 0.3 in WeatherDisplay:10.37 W/m2 FEW
22:55 -5.3 °F -6.4 °F 996.8 in Calm     92% 0.3 in WeatherDisplay:10.37 W/m2 FEW
22:57 -5.2 °F -6.3 °F 996.8 in Calm     92% 0.3 in WeatherDisplay:10.37 W/m2 FEW
23:03 -5.2 °F -6.3 °F 996.8 in Calm     92% 0.3 in WeatherDisplay:10.37 W/m2 FEW
23:07 -5.2 °F -6.3 °F 996.8 in Calm     92% 0.3 in WeatherDisplay:10.37 W/m2 FEW
23:12 -5.3 °F -6.4 °F 996.8 in Calm     92% 0.3 in WeatherDisplay:10.37 W/m2 FEW
23:17 -5.3 °F -6.4 °F 996.8 in Calm     92% 0.3 in WeatherDisplay:10.37 W/m2 FEW
23:21 -5.3 °F -6.4 °F 996.8 in Calm     92% 0.3 in WeatherDisplay:10.37 W/m2 FEW
23:22 -5.2 °F -6.3 °F 996.8 in Calm     92% 0.3 in WeatherDisplay:10.37 W/m2 FEW
23:24 -5.2 °F -6.3 °F 996.8 in Calm     92% 0.3 in WeatherDisplay:10.37 W/m2 FEW
23:27 -5.2 °F -6.3 °F 996.8 in Calm     92% 0.3 in WeatherDisplay:10.37 W/m2 FEW
23:29 -5.2 °F -6.3 °F 996.8 in Calm     92% 0.3 in WeatherDisplay:10.37 W/m2 FEW
23:31 -5.2 °F -6.3 °F 996.8 in Calm     92% 0.3 in WeatherDisplay:10.37 W/m2 FEW
23:32 -5.2 °F -6.3 °F 996.8 in Calm     92% 0.3 in WeatherDisplay:10.37 W/m2 FEW
23:38 -5.2 °F -6.3 °F 996.8 in Calm     92% 0.0 in WeatherDisplay:10.37 W/m2 FEW
23:43 -5.2 °F -6.3 °F 996.8 in Calm     92% 0.0 in WeatherDisplay:10.37 W/m2 FEW
23:48 -5.2 °F -6.3 °F 996.8 in Calm     92% 0.0 in WeatherDisplay:10.37 W/m2 FEW
23:49 -5.2 °F -6.3 °F 996.8 in Calm     92% 0.0 in WeatherDisplay:10.37 W/m2 FEW
23:53 -5.2 °F -6.3 °F 996.8 in Calm     92% 0.0 in WeatherDisplay:10.37 W/m2 FEW
23:58 -5.2 °F -6.3 °F 996.8 in Calm     92% 0.0 in WeatherDisplay:10.37 W/m2 FEW
Tuulensuunkaari, Veikkola, Suomi
Compliments of Weather Underground - 2.25 mb